sensor_id;sensor_type;location;lat;lon;timestamp;P1;durP1;ratioP1;P2;durP2;ratioP2
39214;SDS011;24932;51.746;14.334;2023-05-16T00:00:40;8.63;;;6.6;;
39214;SDS011;24932;51.746;14.334;2023-05-16T00:04:41;6.55;;;5.85;;
39214;SDS011;24932;51.746;14.334;2023-05-16T00:08:40;9.98;;;6.2;;
39214;SDS011;24932;51.746;14.334;2023-05-16T00:12:40;9.15;;;6.78;;
39214;SDS011;24932;51.746;14.334;2023-05-16T00:16:41;6.87;;;6.18;;
39214;SDS011;24932;51.746;14.334;2023-05-16T00:20:40;7.28;;;6.43;;
39214;SDS011;24932;51.746;14.334;2023-05-16T00:24:40;6.25;;;5.65;;
39214;SDS011;24932;51.746;14.334;2023-05-16T00:28:40;8.48;;;6.5;;
39214;SDS011;24932;51.746;14.334;2023-05-16T00:32:41;10.02;;;6.78;;
39214;SDS011;24932;51.746;14.334;2023-05-16T00:36:40;7.55;;;6.15;;
39214;SDS011;24932;51.746;14.334;2023-05-16T00:40:40;7.8;;;6.72;;
39214;SDS011;24932;51.746;14.334;2023-05-16T00:44:40;8.27;;;6.87;;
39214;SDS011;24932;51.746;14.334;2023-05-16T00:48:40;13.93;;;6.97;;
39214;SDS011;24932;51.746;14.334;2023-05-16T00:52:40;10.55;;;7.18;;
39214;SDS011;24932;51.746;14.334;2023-05-16T00:56:40;9.2;;;7.55;;
39214;SDS011;24932;51.746;14.334;2023-05-16T01:00:40;10.35;;;7.3;;
39214;SDS011;24932;51.746;14.334;2023-05-16T01:04:40;10.13;;;7.93;;
39214;SDS011;24932;51.746;14.334;2023-05-16T01:08:39;11.3;;;9.3;;
39214;SDS011;24932;51.746;14.334;2023-05-16T01:12:42;9.07;;;7.9;;
39214;SDS011;24932;51.746;14.334;2023-05-16T01:16:41;11.1;;;9.05;;
39214;SDS011;24932;51.746;14.334;2023-05-16T01:20:41;11.02;;;9.18;;
39214;SDS011;24932;51.746;14.334;2023-05-16T01:24:43;10.32;;;9.18;;
39214;SDS011;24932;51.746;14.334;2023-05-16T01:28:40;12.95;;;9.23;;
39214;SDS011;24932;51.746;14.334;2023-05-16T01:32:41;14.38;;;9.3;;
39214;SDS011;24932;51.746;14.334;2023-05-16T01:36:42;10.68;;;9.02;;
39214;SDS011;24932;51.746;14.334;2023-05-16T01:40:41;10.68;;;9.43;;
39214;SDS011;24932;51.746;14.334;2023-05-16T01:44:40;12.65;;;9.18;;
39214;SDS011;24932;51.746;14.334;2023-05-16T01:48:42;10.05;;;8.6;;
39214;SDS011;24932;51.746;14.334;2023-05-16T01:52:43;10.93;;;8.55;;
39214;SDS011;24932;51.746;14.334;2023-05-16T01:56:40;8.88;;;7.82;;
39214;SDS011;24932;51.746;14.334;2023-05-16T02:00:41;15.95;;;9.0;;
39214;SDS011;24932;51.746;14.334;2023-05-16T02:04:40;11.05;;;7.93;;
39214;SDS011;24932;51.746;14.334;2023-05-16T02:08:40;9.23;;;7.72;;
39214;SDS011;24932;51.746;14.334;2023-05-16T02:12:40;9.05;;;7.62;;
39214;SDS011;24932;51.746;14.334;2023-05-16T02:16:40;10.38;;;8.07;;
39214;SDS011;24932;51.746;14.334;2023-05-16T02:20:40;9.95;;;7.2;;
39214;SDS011;24932;51.746;14.334;2023-05-16T02:24:41;8.15;;;7.07;;
39214;SDS011;24932;51.746;14.334;2023-05-16T02:28:40;9.07;;;7.78;;
39214;SDS011;24932;51.746;14.334;2023-05-16T02:32:40;8.6;;;7.28;;
39214;SDS011;24932;51.746;14.334;2023-05-16T02:36:40;11.65;;;7.65;;
39214;SDS011;24932;51.746;14.334;2023-05-16T02:40:41;8.82;;;7.55;;
39214;SDS011;24932;51.746;14.334;2023-05-16T02:44:40;11.07;;;9.68;;
39214;SDS011;24932;51.746;14.334;2023-05-16T02:48:39;9.98;;;8.3;;
39214;SDS011;24932;51.746;14.334;2023-05-16T02:52:41;10.0;;;8.45;;
39214;SDS011;24932;51.746;14.334;2023-05-16T02:56:41;13.75;;;8.85;;
39214;SDS011;24932;51.746;14.334;2023-05-16T03:00:40;13.6;;;9.85;;
39214;SDS011;24932;51.746;14.334;2023-05-16T03:04:40;12.27;;;9.5;;
39214;SDS011;24932;51.746;14.334;2023-05-16T03:08:41;10.73;;;9.6;;
39214;SDS011;24932;51.746;14.334;2023-05-16T03:12:40;16.85;;;9.9;;
39214;SDS011;24932;51.746;14.334;2023-05-16T03:16:40;14.02;;;9.6;;
39214;SDS011;24932;51.746;14.334;2023-05-16T03:20:40;16.45;;;11.5;;
39214;SDS011;24932;51.746;14.334;2023-05-16T03:24:40;14.02;;;11.6;;
39214;SDS011;24932;51.746;14.334;2023-05-16T03:28:40;16.98;;;10.6;;
39214;SDS011;24932;51.746;14.334;2023-05-16T03:32:40;16.77;;;11.93;;
39214;SDS011;24932;51.746;14.334;2023-05-16T03:36:40;15.48;;;10.95;;
39214;SDS011;24932;51.746;14.334;2023-05-16T03:40:41;13.82;;;10.1;;
39214;SDS011;24932;51.746;14.334;2023-05-16T03:44:40;14.98;;;11.12;;
39214;SDS011;24932;51.746;14.334;2023-05-16T03:48:40;20.92;;;12.95;;
39214;SDS011;24932;51.746;14.334;2023-05-16T03:52:40;25.65;;;11.57;;
39214;SDS011;24932;51.746;14.334;2023-05-16T03:56:40;15.77;;;12.05;;
39214;SDS011;24932;51.746;14.334;2023-05-16T04:00:40;17.23;;;12.65;;
39214;SDS011;24932;51.746;14.334;2023-05-16T04:04:39;15.07;;;12.6;;
39214;SDS011;24932;51.746;14.334;2023-05-16T04:08:40;16.37;;;13.18;;
39214;SDS011;24932;51.746;14.334;2023-05-16T04:12:40;20.48;;;13.25;;
39214;SDS011;24932;51.746;14.334;2023-05-16T04:16:39;17.45;;;10.07;;
39214;SDS011;24932;51.746;14.334;2023-05-16T04:20:40;18.55;;;13.98;;
39214;SDS011;24932;51.746;14.334;2023-05-16T04:24:40;20.37;;;13.25;;
39214;SDS011;24932;51.746;14.334;2023-05-16T04:28:40;19.37;;;14.68;;
39214;SDS011;24932;51.746;14.334;2023-05-16T04:32:40;20.7;;;16.5;;
39214;SDS011;24932;51.746;14.334;2023-05-16T04:36:40;19.8;;;15.1;;
39214;SDS011;24932;51.746;14.334;2023-05-16T04:40:40;25.8;;;15.38;;
39214;SDS011;24932;51.746;14.334;2023-05-16T04:44:39;20.98;;;12.57;;
39214;SDS011;24932;51.746;14.334;2023-05-16T04:48:40;23.92;;;16.45;;
39214;SDS011;24932;51.746;14.334;2023-05-16T04:52:40;17.48;;;11.82;;
39214;SDS011;24932;51.746;14.334;2023-05-16T04:56:41;23.42;;;16.67;;
39214;SDS011;24932;51.746;14.334;2023-05-16T05:00:41;21.9;;;15.82;;
39214;SDS011;24932;51.746;14.334;2023-05-16T05:04:40;19.02;;;14.4;;
39214;SDS011;24932;51.746;14.334;2023-05-16T05:08:39;18.17;;;13.6;;
39214;SDS011;24932;51.746;14.334;2023-05-16T05:12:40;23.2;;;15.7;;
39214;SDS011;24932;51.746;14.334;2023-05-16T05:16:40;21.17;;;15.15;;
39214;SDS011;24932;51.746;14.334;2023-05-16T05:20:41;21.6;;;14.0;;
39214;SDS011;24932;51.746;14.334;2023-05-16T05:24:40;19.48;;;14.9;;
39214;SDS011;24932;51.746;14.334;2023-05-16T05:28:48;24.15;;;13.85;;
39214;SDS011;24932;51.746;14.334;2023-05-16T05:32:40;25.0;;;14.25;;
39214;SDS011;24932;51.746;14.334;2023-05-16T05:36:40;31.4;;;14.68;;
39214;SDS011;24932;51.746;14.334;2023-05-16T05:40:41;22.1;;;14.13;;
39214;SDS011;24932;51.746;14.334;2023-05-16T05:44:40;19.3;;;14.63;;
39214;SDS011;24932;51.746;14.334;2023-05-16T05:48:40;23.83;;;14.98;;
39214;SDS011;24932;51.746;14.334;2023-05-16T05:52:41;19.98;;;13.6;;
39214;SDS011;24932;51.746;14.334;2023-05-16T05:56:41;22.8;;;14.9;;
39214;SDS011;24932;51.746;14.334;2023-05-16T06:00:40;22.05;;;14.65;;
39214;SDS011;24932;51.746;14.334;2023-05-16T06:04:41;23.9;;;14.8;;
39214;SDS011;24932;51.746;14.334;2023-05-16T06:08:40;23.08;;;15.8;;
39214;SDS011;24932;51.746;14.334;2023-05-16T06:12:41;23.9;;;15.73;;
39214;SDS011;24932;51.746;14.334;2023-05-16T06:16:41;23.55;;;14.55;;
39214;SDS011;24932;51.746;14.334;2023-05-16T06:20:40;25.27;;;15.77;;
39214;SDS011;24932;51.746;14.334;2023-05-16T06:24:39;25.88;;;14.23;;
39214;SDS011;24932;51.746;14.334;2023-05-16T06:28:41;23.7;;;14.85;;
39214;SDS011;24932;51.746;14.334;2023-05-16T06:32:40;19.85;;;11.48;;
39214;SDS011;24932;51.746;14.334;2023-05-16T06:36:40;21.73;;;16.2;;
39214;SDS011;24932;51.746;14.334;2023-05-16T06:40:39;19.05;;;11.52;;
39214;SDS011;24932;51.746;14.334;2023-05-16T06:44:41;20.98;;;13.38;;
39214;SDS011;24932;51.746;14.334;2023-05-16T06:48:40;23.77;;;14.82;;
39214;SDS011;24932;51.746;14.334;2023-05-16T06:52:40;17.98;;;12.27;;
39214;SDS011;24932;51.746;14.334;2023-05-16T06:56:40;20.83;;;15.35;;
39214;SDS011;24932;51.746;14.334;2023-05-16T07:00:40;20.83;;;11.18;;
39214;SDS011;24932;51.746;14.334;2023-05-16T07:04:39;21.23;;;12.37;;
39214;SDS011;24932;51.746;14.334;2023-05-16T07:08:39;15.0;;;12.52;;
39214;SDS011;24932;51.746;14.334;2023-05-16T07:12:40;17.55;;;12.77;;
39214;SDS011;24932;51.746;14.334;2023-05-16T07:16:40;14.63;;;10.85;;
39214;SDS011;24932;51.746;14.334;2023-05-16T07:20:41;20.98;;;12.55;;
39214;SDS011;24932;51.746;14.334;2023-05-16T07:24:40;24.02;;;11.8;;
39214;SDS011;24932;51.746;14.334;2023-05-16T07:28:39;21.02;;;12.25;;
39214;SDS011;24932;51.746;14.334;2023-05-16T07:32:40;19.4;;;11.77;;
39214;SDS011;24932;51.746;14.334;2023-05-16T07:36:41;17.27;;;11.25;;
39214;SDS011;24932;51.746;14.334;2023-05-16T07:40:40;16.75;;;10.3;;
39214;SDS011;24932;51.746;14.334;2023-05-16T07:44:41;16.3;;;11.3;;
39214;SDS011;24932;51.746;14.334;2023-05-16T07:48:39;16.7;;;11.75;;
39214;SDS011;24932;51.746;14.334;2023-05-16T07:52:40;18.12;;;11.4;;
39214;SDS011;24932;51.746;14.334;2023-05-16T07:56:40;19.37;;;11.27;;
39214;SDS011;24932;51.746;14.334;2023-05-16T08:00:41;17.7;;;12.2;;
39214;SDS011;24932;51.746;14.334;2023-05-16T08:04:40;24.08;;;11.9;;
39214;SDS011;24932;51.746;14.334;2023-05-16T08:08:40;27.0;;;11.9;;
39214;SDS011;24932;51.746;14.334;2023-05-16T08:12:40;19.27;;;10.63;;
39214;SDS011;24932;51.746;14.334;2023-05-16T08:16:40;15.9;;;12.07;;
39214;SDS011;24932;51.746;14.334;2023-05-16T08:20:40;12.25;;;8.63;;
39214;SDS011;24932;51.746;14.334;2023-05-16T08:24:39;11.7;;;7.2;;
39214;SDS011;24932;51.746;14.334;2023-05-16T08:28:39;15.05;;;8.82;;
39214;SDS011;24932;51.746;14.334;2023-05-16T08:32:40;15.93;;;10.18;;
39214;SDS011;24932;51.746;14.334;2023-05-16T08:36:39;16.2;;;9.73;;
39214;SDS011;24932;51.746;14.334;2023-05-16T08:40:41;14.18;;;8.35;;
39214;SDS011;24932;51.746;14.334;2023-05-16T08:44:39;15.43;;;8.48;;
39214;SDS011;24932;51.746;14.334;2023-05-16T08:48:40;19.67;;;9.52;;
39214;SDS011;24932;51.746;14.334;2023-05-16T08:52:41;12.8;;;6.95;;
39214;SDS011;24932;51.746;14.334;2023-05-16T08:56:41;16.5;;;8.9;;
39214;SDS011;24932;51.746;14.334;2023-05-16T09:00:40;18.95;;;9.0;;
39214;SDS011;24932;51.746;14.334;2023-05-16T09:04:40;13.43;;;9.07;;
39214;SDS011;24932;51.746;14.334;2023-05-16T09:08:40;13.43;;;6.87;;
39214;SDS011;24932;51.746;14.334;2023-05-16T09:12:40;19.08;;;7.72;;
39214;SDS011;24932;51.746;14.334;2023-05-16T09:16:40;15.43;;;7.4;;
39214;SDS011;24932;51.746;14.334;2023-05-16T09:20:42;9.35;;;7.25;;
39214;SDS011;24932;51.746;14.334;2023-05-16T09:24:39;16.52;;;6.9;;
39214;SDS011;24932;51.746;14.334;2023-05-16T09:28:39;17.15;;;6.32;;
39214;SDS011;24932;51.746;14.334;2023-05-16T09:32:42;12.8;;;7.3;;
39214;SDS011;24932;51.746;14.334;2023-05-16T09:36:43;11.73;;;7.18;;
39214;SDS011;24932;51.746;14.334;2023-05-16T09:40:40;10.3;;;6.28;;
39214;SDS011;24932;51.746;14.334;2023-05-16T09:44:40;12.32;;;7.65;;
39214;SDS011;24932;51.746;14.334;2023-05-16T09:48:40;13.13;;;6.37;;
39214;SDS011;24932;51.746;14.334;2023-05-16T09:52:41;9.48;;;6.55;;
39214;SDS011;24932;51.746;14.334;2023-05-16T09:56:47;12.7;;;7.43;;
39214;SDS011;24932;51.746;14.334;2023-05-16T10:00:40;13.52;;;7.78;;
39214;SDS011;24932;51.746;14.334;2023-05-16T10:04:41;11.75;;;7.35;;
39214;SDS011;24932;51.746;14.334;2023-05-16T10:08:41;11.57;;;6.55;;
39214;SDS011;24932;51.746;14.334;2023-05-16T10:12:40;14.87;;;5.97;;
39214;SDS011;24932;51.746;14.334;2023-05-16T10:16:41;11.15;;;7.47;;
39214;SDS011;24932;51.746;14.334;2023-05-16T10:20:41;17.0;;;7.55;;
39214;SDS011;24932;51.746;14.334;2023-05-16T10:24:42;15.05;;;7.12;;
39214;SDS011;24932;51.746;14.334;2023-05-16T10:28:41;17.55;;;6.43;;
39214;SDS011;24932;51.746;14.334;2023-05-16T10:32:43;14.3;;;6.6;;
39214;SDS011;24932;51.746;14.334;2023-05-16T10:36:40;11.23;;;6.78;;
39214;SDS011;24932;51.746;14.334;2023-05-16T10:40:40;11.55;;;5.5;;
39214;SDS011;24932;51.746;14.334;2023-05-16T10:44:49;10.85;;;6.18;;
39214;SDS011;24932;51.746;14.334;2023-05-16T10:48:41;7.87;;;5.85;;
39214;SDS011;24932;51.746;14.334;2023-05-16T10:52:40;13.27;;;5.93;;
39214;SDS011;24932;51.746;14.334;2023-05-16T10:56:40;10.13;;;6.12;;
39214;SDS011;24932;51.746;14.334;2023-05-16T11:00:40;10.95;;;6.65;;
39214;SDS011;24932;51.746;14.334;2023-05-16T11:04:44;9.43;;;6.4;;
39214;SDS011;24932;51.746;14.334;2023-05-16T11:08:56;12.75;;;6.57;;
39214;SDS011;24932;51.746;14.334;2023-05-16T11:12:41;9.9;;;5.5;;
39214;SDS011;24932;51.746;14.334;2023-05-16T11:16:40;8.18;;;5.7;;
39214;SDS011;24932;51.746;14.334;2023-05-16T11:20:40;8.77;;;5.87;;
39214;SDS011;24932;51.746;14.334;2023-05-16T11:24:47;10.82;;;5.85;;
39214;SDS011;24932;51.746;14.334;2023-05-16T11:28:39;10.93;;;6.6;;
39214;SDS011;24932;51.746;14.334;2023-05-16T11:32:41;16.4;;;6.47;;
39214;SDS011;24932;51.746;14.334;2023-05-16T11:36:40;19.0;;;7.85;;
39214;SDS011;24932;51.746;14.334;2023-05-16T11:40:41;16.85;;;7.03;;
39214;SDS011;24932;51.746;14.334;2023-05-16T11:44:39;13.13;;;5.95;;
39214;SDS011;24932;51.746;14.334;2023-05-16T11:48:39;9.35;;;5.7;;
39214;SDS011;24932;51.746;14.334;2023-05-16T11:52:42;10.85;;;5.53;;
39214;SDS011;24932;51.746;14.334;2023-05-16T11:56:40;8.98;;;5.68;;
39214;SDS011;24932;51.746;14.334;2023-05-16T12:00:46;8.0;;;5.6;;
39214;SDS011;24932;51.746;14.334;2023-05-16T12:04:40;6.68;;;4.3;;
39214;SDS011;24932;51.746;14.334;2023-05-16T12:08:48;6.28;;;4.72;;
39214;SDS011;24932;51.746;14.334;2023-05-16T12:12:40;6.05;;;4.78;;
39214;SDS011;24932;51.746;14.334;2023-05-16T12:16:40;7.97;;;5.0;;
39214;SDS011;24932;51.746;14.334;2023-05-16T12:20:41;13.75;;;4.68;;
39214;SDS011;24932;51.746;14.334;2023-05-16T12:24:40;15.93;;;5.25;;
39214;SDS011;24932;51.746;14.334;2023-05-16T12:28:40;10.38;;;4.57;;
39214;SDS011;24932;51.746;14.334;2023-05-16T12:32:40;5.53;;;3.45;;
39214;SDS011;24932;51.746;14.334;2023-05-16T12:36:40;10.45;;;4.75;;
39214;SDS011;24932;51.746;14.334;2023-05-16T12:40:41;9.23;;;4.65;;
39214;SDS011;24932;51.746;14.334;2023-05-16T12:44:39;10.65;;;5.18;;
39214;SDS011;24932;51.746;14.334;2023-05-16T12:48:40;7.43;;;4.97;;
39214;SDS011;24932;51.746;14.334;2023-05-16T12:52:48;8.48;;;3.7;;
39214;SDS011;24932;51.746;14.334;2023-05-16T12:56:40;6.32;;;3.67;;
39214;SDS011;24932;51.746;14.334;2023-05-16T13:00:41;6.9;;;3.75;;
39214;SDS011;24932;51.746;14.334;2023-05-16T13:04:40;3.83;;;3.35;;
39214;SDS011;24932;51.746;14.334;2023-05-16T13:08:40;9.73;;;4.03;;
39214;SDS011;24932;51.746;14.334;2023-05-16T13:12:40;4.12;;;2.8;;
39214;SDS011;24932;51.746;14.334;2023-05-16T13:16:41;6.55;;;3.85;;
39214;SDS011;24932;51.746;14.334;2023-05-16T13:20:40;7.4;;;4.07;;
39214;SDS011;24932;51.746;14.334;2023-05-16T13:24:40;4.45;;;4.05;;
39214;SDS011;24932;51.746;14.334;2023-05-16T13:28:40;6.37;;;3.6;;
39214;SDS011;24932;51.746;14.334;2023-05-16T13:32:41;5.65;;;3.87;;
39214;SDS011;24932;51.746;14.334;2023-05-16T13:36:53;6.4;;;4.28;;
39214;SDS011;24932;51.746;14.334;2023-05-16T13:40:41;8.7;;;3.85;;
39214;SDS011;24932;51.746;14.334;2023-05-16T13:44:40;6.45;;;3.37;;
39214;SDS011;24932;51.746;14.334;2023-05-16T13:48:41;7.57;;;3.12;;
39214;SDS011;24932;51.746;14.334;2023-05-16T13:52:40;8.6;;;3.4;;
39214;SDS011;24932;51.746;14.334;2023-05-16T13:56:40;11.65;;;2.97;;
39214;SDS011;24932;51.746;14.334;2023-05-16T14:00:46;4.6;;;3.25;;
39214;SDS011;24932;51.746;14.334;2023-05-16T14:04:40;5.55;;;3.12;;
39214;SDS011;24932;51.746;14.334;2023-05-16T14:08:40;5.78;;;2.9;;
39214;SDS011;24932;51.746;14.334;2023-05-16T14:12:40;4.3;;;2.37;;
39214;SDS011;24932;51.746;14.334;2023-05-16T14:16:40;7.35;;;2.6;;
39214;SDS011;24932;51.746;14.334;2023-05-16T14:20:40;6.68;;;3.2;;
39214;SDS011;24932;51.746;14.334;2023-05-16T14:24:41;8.25;;;3.53;;
39214;SDS011;24932;51.746;14.334;2023-05-16T14:28:40;4.03;;;3.08;;
39214;SDS011;24932;51.746;14.334;2023-05-16T14:32:40;4.05;;;2.87;;
39214;SDS011;24932;51.746;14.334;2023-05-16T14:36:40;10.48;;;3.25;;
39214;SDS011;24932;51.746;14.334;2023-05-16T14:40:40;12.63;;;3.17;;
39214;SDS011;24932;51.746;14.334;2023-05-16T14:44:40;7.97;;;3.08;;
39214;SDS011;24932;51.746;14.334;2023-05-16T14:48:41;6.75;;;2.72;;
39214;SDS011;24932;51.746;14.334;2023-05-16T14:52:40;7.43;;;3.2;;
39214;SDS011;24932;51.746;14.334;2023-05-16T14:56:40;3.37;;;2.5;;
39214;SDS011;24932;51.746;14.334;2023-05-16T15:00:40;4.87;;;2.22;;
39214;SDS011;24932;51.746;14.334;2023-05-16T15:04:40;5.7;;;2.62;;
39214;SDS011;24932;51.746;14.334;2023-05-16T15:08:40;3.67;;;2.25;;
39214;SDS011;24932;51.746;14.334;2023-05-16T15:12:40;6.0;;;2.7;;
39214;SDS011;24932;51.746;14.334;2023-05-16T15:16:41;4.45;;;2.58;;
39214;SDS011;24932;51.746;14.334;2023-05-16T15:20:40;6.9;;;3.1;;
39214;SDS011;24932;51.746;14.334;2023-05-16T15:24:40;5.1;;;2.67;;
39214;SDS011;24932;51.746;14.334;2023-05-16T15:28:40;4.85;;;2.53;;
39214;SDS011;24932;51.746;14.334;2023-05-16T15:32:40;5.9;;;2.53;;
39214;SDS011;24932;51.746;14.334;2023-05-16T15:36:40;5.8;;;2.17;;
39214;SDS011;24932;51.746;14.334;2023-05-16T15:40:41;6.75;;;2.45;;
39214;SDS011;24932;51.746;14.334;2023-05-16T15:44:40;6.93;;;2.4;;
39214;SDS011;24932;51.746;14.334;2023-05-16T15:48:40;9.1;;;2.35;;
39214;SDS011;24932;51.746;14.334;2023-05-16T15:52:40;7.2;;;2.42;;
39214;SDS011;24932;51.746;14.334;2023-05-16T15:56:40;10.0;;;2.58;;
39214;SDS011;24932;51.746;14.334;2023-05-16T16:00:40;7.7;;;2.1;;
39214;SDS011;24932;51.746;14.334;2023-05-16T16:04:40;4.68;;;2.08;;
39214;SDS011;24932;51.746;14.334;2023-05-16T16:08:40;5.37;;;2.7;;
39214;SDS011;24932;51.746;14.334;2023-05-16T16:12:40;6.53;;;2.22;;
39214;SDS011;24932;51.746;14.334;2023-05-16T16:16:41;2.62;;;1.92;;
39214;SDS011;24932;51.746;14.334;2023-05-16T16:20:40;8.25;;;2.83;;
39214;SDS011;24932;51.746;14.334;2023-05-16T16:24:40;6.43;;;2.47;;
39214;SDS011;24932;51.746;14.334;2023-05-16T16:28:40;10.05;;;1.92;;
39214;SDS011;24932;51.746;14.334;2023-05-16T16:32:40;6.22;;;2.0;;
39214;SDS011;24932;51.746;14.334;2023-05-16T16:36:40;5.93;;;1.8;;
39214;SDS011;24932;51.746;14.334;2023-05-16T16:40:40;6.75;;;2.17;;
39214;SDS011;24932;51.746;14.334;2023-05-16T16:44:40;4.15;;;1.9;;
39214;SDS011;24932;51.746;14.334;2023-05-16T16:48:40;6.97;;;3.05;;
39214;SDS011;24932;51.746;14.334;2023-05-16T16:52:40;7.87;;;2.12;;
39214;SDS011;24932;51.746;14.334;2023-05-16T16:56:40;7.22;;;2.0;;
39214;SDS011;24932;51.746;14.334;2023-05-16T17:00:41;6.05;;;1.83;;
39214;SDS011;24932;51.746;14.334;2023-05-16T17:04:40;7.7;;;2.3;;
39214;SDS011;24932;51.746;14.334;2023-05-16T17:08:40;9.77;;;1.98;;
39214;SDS011;24932;51.746;14.334;2023-05-16T17:12:40;21.73;;;3.12;;
39214;SDS011;24932;51.746;14.334;2023-05-16T17:16:40;9.35;;;1.83;;
39214;SDS011;24932;51.746;14.334;2023-05-16T17:20:40;4.97;;;1.83;;
39214;SDS011;24932;51.746;14.334;2023-05-16T17:24:40;5.25;;;2.2;;
39214;SDS011;24932;51.746;14.334;2023-05-16T17:28:40;7.65;;;2.15;;
39214;SDS011;24932;51.746;14.334;2023-05-16T17:32:40;4.95;;;1.9;;
39214;SDS011;24932;51.746;14.334;2023-05-16T17:36:40;8.7;;;1.83;;
39214;SDS011;24932;51.746;14.334;2023-05-16T17:40:40;9.63;;;2.62;;
39214;SDS011;24932;51.746;14.334;2023-05-16T17:44:40;16.67;;;2.22;;
39214;SDS011;24932;51.746;14.334;2023-05-16T17:48:40;10.0;;;2.2;;
39214;SDS011;24932;51.746;14.334;2023-05-16T17:52:40;13.05;;;1.8;;
39214;SDS011;24932;51.746;14.334;2023-05-16T17:56:40;4.68;;;2.1;;
39214;SDS011;24932;51.746;14.334;2023-05-16T18:00:40;5.7;;;2.0;;
39214;SDS011;24932;51.746;14.334;2023-05-16T18:04:41;7.78;;;1.5;;
39214;SDS011;24932;51.746;14.334;2023-05-16T18:08:40;7.78;;;2.0;;
39214;SDS011;24932;51.746;14.334;2023-05-16T18:12:41;6.32;;;2.0;;
39214;SDS011;24932;51.746;14.334;2023-05-16T18:16:40;8.57;;;2.1;;
39214;SDS011;24932;51.746;14.334;2023-05-16T18:20:40;5.03;;;2.2;;
39214;SDS011;24932;51.746;14.334;2023-05-16T18:24:40;9.43;;;2.25;;
39214;SDS011;24932;51.746;14.334;2023-05-16T18:28:40;8.6;;;2.12;;
39214;SDS011;24932;51.746;14.334;2023-05-16T18:32:41;13.3;;;2.37;;
39214;SDS011;24932;51.746;14.334;2023-05-16T18:36:40;6.55;;;1.9;;
39214;SDS011;24932;51.746;14.334;2023-05-16T18:40:40;5.87;;;1.92;;
39214;SDS011;24932;51.746;14.334;2023-05-16T18:44:40;8.73;;;2.4;;
39214;SDS011;24932;51.746;14.334;2023-05-16T18:48:40;6.32;;;2.5;;
39214;SDS011;24932;51.746;14.334;2023-05-16T18:52:40;9.3;;;2.58;;
39214;SDS011;24932;51.746;14.334;2023-05-16T18:56:40;7.1;;;2.47;;
39214;SDS011;24932;51.746;14.334;2023-05-16T19:00:40;12.48;;;3.03;;
39214;SDS011;24932;51.746;14.334;2023-05-16T19:04:41;13.27;;;4.22;;
39214;SDS011;24932;51.746;14.334;2023-05-16T19:08:47;10.82;;;3.87;;
39214;SDS011;24932;51.746;14.334;2023-05-16T19:12:40;10.35;;;3.12;;
39214;SDS011;24932;51.746;14.334;2023-05-16T19:16:40;11.23;;;3.8;;
39214;SDS011;24932;51.746;14.334;2023-05-16T19:20:40;8.52;;;3.42;;
39214;SDS011;24932;51.746;14.334;2023-05-16T19:24:40;9.75;;;4.05;;
39214;SDS011;24932;51.746;14.334;2023-05-16T19:28:40;10.52;;;3.53;;
39214;SDS011;24932;51.746;14.334;2023-05-16T19:32:41;9.2;;;3.22;;
39214;SDS011;24932;51.746;14.334;2023-05-16T19:36:40;7.93;;;3.35;;
39214;SDS011;24932;51.746;14.334;2023-05-16T19:40:40;10.27;;;3.42;;
39214;SDS011;24932;51.746;14.334;2023-05-16T19:44:40;10.07;;;3.78;;
39214;SDS011;24932;51.746;14.334;2023-05-16T19:48:40;10.65;;;3.12;;
39214;SDS011;24932;51.746;14.334;2023-05-16T19:52:40;13.52;;;4.37;;
39214;SDS011;24932;51.746;14.334;2023-05-16T19:56:40;13.8;;;3.72;;
39214;SDS011;24932;51.746;14.334;2023-05-16T20:00:40;9.43;;;3.35;;
39214;SDS011;24932;51.746;14.334;2023-05-16T20:04:41;9.5;;;3.35;;
39214;SDS011;24932;51.746;14.334;2023-05-16T20:08:40;9.95;;;3.4;;
39214;SDS011;24932;51.746;14.334;2023-05-16T20:12:40;13.98;;;3.4;;
39214;SDS011;24932;51.746;14.334;2023-05-16T20:16:40;13.23;;;3.47;;
39214;SDS011;24932;51.746;14.334;2023-05-16T20:20:40;12.88;;;3.85;;
39214;SDS011;24932;51.746;14.334;2023-05-16T20:24:40;11.85;;;4.05;;
39214;SDS011;24932;51.746;14.334;2023-05-16T20:28:40;7.95;;;3.1;;
39214;SDS011;24932;51.746;14.334;2023-05-16T20:32:40;11.5;;;3.0;;
39214;SDS011;24932;51.746;14.334;2023-05-16T20:36:40;10.95;;;3.15;;
39214;SDS011;24932;51.746;14.334;2023-05-16T20:40:40;5.78;;;3.1;;
39214;SDS011;24932;51.746;14.334;2023-05-16T20:44:40;10.32;;;3.22;;
39214;SDS011;24932;51.746;14.334;2023-05-16T20:48:40;14.82;;;3.92;;
39214;SDS011;24932;51.746;14.334;2023-05-16T20:52:41;7.15;;;1.92;;
39214;SDS011;24932;51.746;14.334;2023-05-16T20:56:40;12.37;;;2.17;;
39214;SDS011;24932;51.746;14.334;2023-05-16T21:00:40;6.07;;;2.0;;
39214;SDS011;24932;51.746;14.334;2023-05-16T21:04:40;5.18;;;1.77;;
39214;SDS011;24932;51.746;14.334;2023-05-16T21:08:41;6.2;;;2.3;;
39214;SDS011;24932;51.746;14.334;2023-05-16T21:12:40;8.35;;;2.03;;
39214;SDS011;24932;51.746;14.334;2023-05-16T21:16:41;7.85;;;1.5;;
39214;SDS011;24932;51.746;14.334;2023-05-16T21:20:40;7.45;;;1.6;;
39214;SDS011;24932;51.746;14.334;2023-05-16T21:24:41;6.37;;;1.52;;
39214;SDS011;24932;51.746;14.334;2023-05-16T21:28:51;3.7;;;1.17;;
39214;SDS011;24932;51.746;14.334;2023-05-16T21:32:40;6.97;;;1.42;;
39214;SDS011;24932;51.746;14.334;2023-05-16T21:36:40;9.43;;;0.9;;
39214;SDS011;24932;51.746;14.334;2023-05-16T21:40:40;4.85;;;1.0;;
39214;SDS011;24932;51.746;14.334;2023-05-16T21:44:40;3.35;;;0.8;;
39214;SDS011;24932;51.746;14.334;2023-05-16T21:48:41;3.12;;;1.02;;
39214;SDS011;24932;51.746;14.334;2023-05-16T21:52:40;4.22;;;0.98;;
39214;SDS011;24932;51.746;14.334;2023-05-16T21:56:40;8.32;;;1.33;;
39214;SDS011;24932;51.746;14.334;2023-05-16T22:00:40;7.0;;;1.87;;
39214;SDS011;24932;51.746;14.334;2023-05-16T22:04:40;5.28;;;1.58;;
39214;SDS011;24932;51.746;14.334;2023-05-16T22:08:40;3.08;;;0.85;;
39214;SDS011;24932;51.746;14.334;2023-05-16T22:12:40;3.4;;;1.0;;
39214;SDS011;24932;51.746;14.334;2023-05-16T22:16:40;10.52;;;1.35;;
39214;SDS011;24932;51.746;14.334;2023-05-16T22:20:41;4.4;;;1.27;;
39214;SDS011;24932;51.746;14.334;2023-05-16T22:24:40;5.2;;;1.1;;
39214;SDS011;24932;51.746;14.334;2023-05-16T22:28:40;5.37;;;0.9;;
39214;SDS011;24932;51.746;14.334;2023-05-16T22:32:41;4.07;;;1.17;;
39214;SDS011;24932;51.746;14.334;2023-05-16T22:36:40;7.47;;;0.8;;
39214;SDS011;24932;51.746;14.334;2023-05-16T22:40:40;2.47;;;0.7;;
39214;SDS011;24932;51.746;14.334;2023-05-16T22:44:40;7.72;;;1.27;;
39214;SDS011;24932;51.746;14.334;2023-05-16T22:48:40;4.97;;;0.88;;
39214;SDS011;24932;51.746;14.334;2023-05-16T22:52:40;1.73;;;0.88;;
39214;SDS011;24932;51.746;14.334;2023-05-16T22:56:40;10.65;;;1.9;;
39214;SDS011;24932;51.746;14.334;2023-05-16T23:00:40;5.03;;;0.93;;
39214;SDS011;24932;51.746;14.334;2023-05-16T23:04:40;1.45;;;0.7;;
39214;SDS011;24932;51.746;14.334;2023-05-16T23:08:40;6.5;;;1.0;;
39214;SDS011;24932;51.746;14.334;2023-05-16T23:12:40;3.3;;;0.93;;
39214;SDS011;24932;51.746;14.334;2023-05-16T23:16:40;10.45;;;0.85;;
39214;SDS011;24932;51.746;14.334;2023-05-16T23:20:40;4.45;;;1.45;;
39214;SDS011;24932;51.746;14.334;2023-05-16T23:24:40;8.93;;;0.9;;
39214;SDS011;24932;51.746;14.334;2023-05-16T23:28:40;3.92;;;0.77;;
39214;SDS011;24932;51.746;14.334;2023-05-16T23:32:40;5.7;;;0.9;;
39214;SDS011;24932;51.746;14.334;2023-05-16T23:36:40;7.3;;;1.48;;